Aeroporto :
LOGIN :

Iscrizione | Disclaimer

   EN    FR    IT 

 










Sommario :    VFR   VFR Marginale   IFR   IFR Intensivo   IFR Molto Intensivo
Visibilità : 
Base nubi : 
>= 8 km
>= 3000ft
5 / 8 km
1000 / 3000 ft
1500m / 5 km
500 / 1000 ft
800 / 1500m
200 / 500 ft
< 800m
< 200 ft
Simboli :   Temporali  Nebbia  Neve Forte  Precipitazioni Forti  Vento > 20 kt
SIGMETs :   Varie  Temporali  Ghiacco  Turbolenza  Onda orograficha  Ceneri Vulcaniche






- Altitudine del aeroporto : 17 ft
- Codice IATA : MPL


LFMT - Montpellier Méditerranée

ULTIMO METAR :
  • 181100Z AUTO 14006KT 9999 SCT011 BKN200 BKN220 21/19 Q1015 TEMPO BKN006

METARs OBSOLETI :
  • 181030Z AUTO 13008KT 9999 BKN009 BKN028 BKN190 21/19 Q1015 BECMG NSC
  • 181000Z AUTO 13008KT 9999 BKN010 BKN026 BKN046 21/19 Q1015 NOSIG
  • 180930Z AUTO 12007KT 9999 BKN009 BKN130 21/19 Q1015 NOSIG
  • 180900Z AUTO 11006KT 9999 BKN009 BKN014 OVC022 20/18 Q1015 NOSIG
  • 180830Z AUTO 10007KT 9999 BKN009 BKN014 OVC023 20/19 Q1015 NOSIG

TAF TAF LFMT
Valido dal 18 a 09 ore il 19 a 09 ore UTC


180800Z 1809/1909 VRB05KT CAVOK
TEMPO 1809/1812 BKN006
BECMG 1816/1819 1200 BR BKN008
TEMPO 1819/1909 16015KT 0200 RA FG VV///
ATIS : +33 4 67 13 11 70



MetMap, La meteo Aeronautica in un colpo d'occhio ! - Copyright ORBIFLY Dicembre 2007 - Disclaimer

ORBIFLY MET'MAP TEAM :

Programmazione e sviluppo : Alexandra Zaïnal
Concezione e sviluppo : Baudouin d'Aumeries
Co-Programmazione e sviluppo : Marc-Olivier Méhu
Supporto tecnico e logistico : Manuel Goepfert
Aiuto per la traduzione : Arnaldo La Scala

Contatto : metmap@orbifly.com




FONTI E CREDITI :

   NOAA